sensor_id;sensor_type;location;lat;lon;timestamp;P1;durP1;ratioP1;P2;durP2;ratioP2
68633;SDS011;55625;47.072;22.192;2022-10-15T00:00:34;8.45;;;2.55;;
68633;SDS011;55625;47.072;22.192;2022-10-15T00:03:00;6.68;;;3.22;;
68633;SDS011;55625;47.072;22.192;2022-10-15T00:05:26;7.18;;;3.13;;
68633;SDS011;55625;47.072;22.192;2022-10-15T00:07:52;8.03;;;2.37;;
68633;SDS011;55625;47.072;22.192;2022-10-15T00:10:18;17.92;;;4.95;;
68633;SDS011;55625;47.072;22.192;2022-10-15T00:12:44;10.23;;;3.67;;
68633;SDS011;55625;47.072;22.192;2022-10-15T00:15:11;7.30;;;2.55;;
68633;SDS011;55625;47.072;22.192;2022-10-15T00:17:37;7.53;;;3.97;;
68633;SDS011;55625;47.072;22.192;2022-10-15T00:20:04;5.87;;;2.80;;
68633;SDS011;55625;47.072;22.192;2022-10-15T00:22:33;11.48;;;3.58;;
68633;SDS011;55625;47.072;22.192;2022-10-15T00:24:59;4.95;;;2.25;;
68633;SDS011;55625;47.072;22.192;2022-10-15T00:27:24;7.13;;;3.33;;
68633;SDS011;55625;47.072;22.192;2022-10-15T00:29:50;8.13;;;3.40;;
68633;SDS011;55625;47.072;22.192;2022-10-15T00:32:16;6.20;;;2.67;;
68633;SDS011;55625;47.072;22.192;2022-10-15T00:34:42;4.50;;;2.40;;
68633;SDS011;55625;47.072;22.192;2022-10-15T00:37:08;10.27;;;2.93;;
68633;SDS011;55625;47.072;22.192;2022-10-15T00:39:34;10.25;;;3.53;;
68633;SDS011;55625;47.072;22.192;2022-10-15T00:42:01;12.30;;;3.25;;
68633;SDS011;55625;47.072;22.192;2022-10-15T00:49:47;5.50;;;2.37;;
68633;SDS011;55625;47.072;22.192;2022-10-15T00:52:24;10.13;;;3.45;;
68633;SDS011;55625;47.072;22.192;2022-10-15T00:55:17;5.97;;;2.65;;
68633;SDS011;55625;47.072;22.192;2022-10-15T00:57:51;6.53;;;3.33;;
68633;SDS011;55625;47.072;22.192;2022-10-15T01:00:17;6.22;;;3.10;;
68633;SDS011;55625;47.072;22.192;2022-10-15T01:02:44;6.57;;;2.53;;
68633;SDS011;55625;47.072;22.192;2022-10-15T01:05:11;6.80;;;2.38;;
68633;SDS011;55625;47.072;22.192;2022-10-15T01:07:40;9.55;;;2.47;;
68633;SDS011;55625;47.072;22.192;2022-10-15T01:10:06;11.38;;;3.60;;
68633;SDS011;55625;47.072;22.192;2022-10-15T01:15:15;7.88;;;3.55;;
68633;SDS011;55625;47.072;22.192;2022-10-15T01:30:14;6.70;;;2.55;;
68633;SDS011;55625;47.072;22.192;2022-10-15T01:33:14;3.72;;;2.10;;
68633;SDS011;55625;47.072;22.192;2022-10-15T01:36:16;32.30;;;3.30;;
68633;SDS011;55625;47.072;22.192;2022-10-15T01:39:11;5.32;;;2.60;;
68633;SDS011;55625;47.072;22.192;2022-10-15T01:41:46;4.80;;;2.70;;
68633;SDS011;55625;47.072;22.192;2022-10-15T01:44:30;4.13;;;1.80;;
68633;SDS011;55625;47.072;22.192;2022-10-15T01:47:05;4.95;;;2.42;;
68633;SDS011;55625;47.072;22.192;2022-10-15T01:49:40;11.77;;;2.88;;
68633;SDS011;55625;47.072;22.192;2022-10-15T01:52:09;4.10;;;1.33;;
68633;SDS011;55625;47.072;22.192;2022-10-15T01:54:42;10.93;;;2.37;;
68633;SDS011;55625;47.072;22.192;2022-10-15T01:57:11;4.95;;;2.05;;
68633;SDS011;55625;47.072;22.192;2022-10-15T01:59:38;9.20;;;3.80;;
68633;SDS011;55625;47.072;22.192;2022-10-15T02:02:07;9.40;;;3.63;;
68633;SDS011;55625;47.072;22.192;2022-10-15T02:04:32;7.25;;;2.08;;
68633;SDS011;55625;47.072;22.192;2022-10-15T02:07:01;5.17;;;3.13;;
68633;SDS011;55625;47.072;22.192;2022-10-15T02:12:28;7.55;;;3.25;;
68633;SDS011;55625;47.072;22.192;2022-10-15T02:15:25;9.15;;;2.65;;
68633;SDS011;55625;47.072;22.192;2022-10-15T02:18:15;5.80;;;1.73;;
68633;SDS011;55625;47.072;22.192;2022-10-15T02:21:11;5.40;;;2.70;;
68633;SDS011;55625;47.072;22.192;2022-10-15T02:23:46;5.93;;;2.28;;
68633;SDS011;55625;47.072;22.192;2022-10-15T02:26:35;5.75;;;2.97;;
68633;SDS011;55625;47.072;22.192;2022-10-15T02:29:04;6.95;;;3.20;;
68633;SDS011;55625;47.072;22.192;2022-10-15T02:31:34;4.87;;;2.40;;
68633;SDS011;55625;47.072;22.192;2022-10-15T02:34:07;5.45;;;1.63;;
68633;SDS011;55625;47.072;22.192;2022-10-15T02:36:38;12.20;;;3.97;;
68633;SDS011;55625;47.072;22.192;2022-10-15T02:39:05;6.60;;;3.83;;
68633;SDS011;55625;47.072;22.192;2022-10-15T02:41:34;8.23;;;2.47;;
68633;SDS011;55625;47.072;22.192;2022-10-15T02:44:01;7.70;;;2.00;;
68633;SDS011;55625;47.072;22.192;2022-10-15T02:46:28;5.20;;;1.95;;
68633;SDS011;55625;47.072;22.192;2022-10-15T02:48:54;7.13;;;2.67;;
68633;SDS011;55625;47.072;22.192;2022-10-15T02:51:20;8.07;;;3.42;;
68633;SDS011;55625;47.072;22.192;2022-10-15T02:53:45;9.10;;;3.00;;
68633;SDS011;55625;47.072;22.192;2022-10-15T02:56:11;5.82;;;3.15;;
68633;SDS011;55625;47.072;22.192;2022-10-15T02:58:37;7.23;;;3.07;;
68633;SDS011;55625;47.072;22.192;2022-10-15T03:01:03;8.45;;;3.75;;
68633;SDS011;55625;47.072;22.192;2022-10-15T03:03:29;6.55;;;3.13;;
68633;SDS011;55625;47.072;22.192;2022-10-15T03:05:55;3.87;;;2.07;;
68633;SDS011;55625;47.072;22.192;2022-10-15T03:08:20;6.22;;;2.88;;
68633;SDS011;55625;47.072;22.192;2022-10-15T03:10:47;5.93;;;3.05;;
68633;SDS011;55625;47.072;22.192;2022-10-15T03:13:12;6.50;;;2.23;;
68633;SDS011;55625;47.072;22.192;2022-10-15T03:15:38;7.97;;;2.30;;
68633;SDS011;55625;47.072;22.192;2022-10-15T03:18:04;8.55;;;3.05;;
68633;SDS011;55625;47.072;22.192;2022-10-15T03:20:31;6.63;;;1.92;;
68633;SDS011;55625;47.072;22.192;2022-10-15T03:22:57;9.20;;;3.43;;
68633;SDS011;55625;47.072;22.192;2022-10-15T03:25:23;12.95;;;4.22;;
68633;SDS011;55625;47.072;22.192;2022-10-15T03:27:49;10.07;;;4.50;;
68633;SDS011;55625;47.072;22.192;2022-10-15T03:30:17;6.83;;;3.33;;
68633;SDS011;55625;47.072;22.192;2022-10-15T03:32:43;9.55;;;2.60;;
68633;SDS011;55625;47.072;22.192;2022-10-15T03:35:09;5.80;;;2.08;;
68633;SDS011;55625;47.072;22.192;2022-10-15T03:37:35;8.00;;;2.60;;
68633;SDS011;55625;47.072;22.192;2022-10-15T03:40:01;30.75;;;3.45;;
68633;SDS011;55625;47.072;22.192;2022-10-15T03:42:27;6.97;;;2.58;;
68633;SDS011;55625;47.072;22.192;2022-10-15T03:44:53;7.73;;;3.10;;
68633;SDS011;55625;47.072;22.192;2022-10-15T03:47:18;7.85;;;3.08;;
68633;SDS011;55625;47.072;22.192;2022-10-15T03:49:44;5.25;;;2.47;;
68633;SDS011;55625;47.072;22.192;2022-10-15T03:52:10;7.00;;;2.97;;
68633;SDS011;55625;47.072;22.192;2022-10-15T03:54:36;10.68;;;2.53;;
68633;SDS011;55625;47.072;22.192;2022-10-15T03:57:01;4.83;;;2.33;;
68633;SDS011;55625;47.072;22.192;2022-10-15T03:59:27;4.60;;;2.30;;
68633;SDS011;55625;47.072;22.192;2022-10-15T04:01:53;7.75;;;2.72;;
68633;SDS011;55625;47.072;22.192;2022-10-15T04:04:19;8.37;;;3.13;;
68633;SDS011;55625;47.072;22.192;2022-10-15T04:06:45;6.95;;;2.80;;
68633;SDS011;55625;47.072;22.192;2022-10-15T04:09:12;6.18;;;2.60;;
68633;SDS011;55625;47.072;22.192;2022-10-15T04:11:38;12.43;;;3.58;;
68633;SDS011;55625;47.072;22.192;2022-10-15T04:14:04;7.07;;;2.47;;
68633;SDS011;55625;47.072;22.192;2022-10-15T04:16:30;4.72;;;2.28;;
68633;SDS011;55625;47.072;22.192;2022-10-15T04:18:57;9.57;;;3.30;;
68633;SDS011;55625;47.072;22.192;2022-10-15T04:21:23;6.60;;;2.15;;
68633;SDS011;55625;47.072;22.192;2022-10-15T04:23:50;7.28;;;3.28;;
68633;SDS011;55625;47.072;22.192;2022-10-15T04:26:16;5.23;;;1.87;;
68633;SDS011;55625;47.072;22.192;2022-10-15T04:28:41;4.65;;;1.80;;
68633;SDS011;55625;47.072;22.192;2022-10-15T04:31:07;8.35;;;3.90;;
68633;SDS011;55625;47.072;22.192;2022-10-15T04:33:33;9.03;;;3.93;;
68633;SDS011;55625;47.072;22.192;2022-10-15T04:36:06;5.90;;;3.08;;
68633;SDS011;55625;47.072;22.192;2022-10-15T04:38:36;6.32;;;2.97;;
68633;SDS011;55625;47.072;22.192;2022-10-15T04:41:03;7.87;;;3.23;;
68633;SDS011;55625;47.072;22.192;2022-10-15T04:43:32;11.17;;;4.57;;
68633;SDS011;55625;47.072;22.192;2022-10-15T04:45:59;7.95;;;3.83;;
68633;SDS011;55625;47.072;22.192;2022-10-15T04:48:27;8.27;;;3.83;;
68633;SDS011;55625;47.072;22.192;2022-10-15T04:50:54;8.90;;;4.00;;
68633;SDS011;55625;47.072;22.192;2022-10-15T04:53:26;11.50;;;3.35;;
68633;SDS011;55625;47.072;22.192;2022-10-15T04:55:52;10.73;;;3.97;;
68633;SDS011;55625;47.072;22.192;2022-10-15T04:58:18;9.35;;;3.97;;
68633;SDS011;55625;47.072;22.192;2022-10-15T05:00:43;6.50;;;3.83;;
68633;SDS011;55625;47.072;22.192;2022-10-15T05:03:09;10.13;;;3.47;;
68633;SDS011;55625;47.072;22.192;2022-10-15T05:05:35;7.82;;;3.08;;
68633;SDS011;55625;47.072;22.192;2022-10-15T05:08:01;5.40;;;3.03;;
68633;SDS011;55625;47.072;22.192;2022-10-15T05:10:29;10.23;;;3.22;;
68633;SDS011;55625;47.072;22.192;2022-10-15T05:12:54;6.95;;;3.38;;
68633;SDS011;55625;47.072;22.192;2022-10-15T05:15:20;6.00;;;3.00;;
68633;SDS011;55625;47.072;22.192;2022-10-15T05:17:46;5.78;;;3.15;;
68633;SDS011;55625;47.072;22.192;2022-10-15T05:20:12;9.20;;;4.68;;
68633;SDS011;55625;47.072;22.192;2022-10-15T05:22:38;5.63;;;3.77;;
68633;SDS011;55625;47.072;22.192;2022-10-15T05:25:04;8.30;;;4.60;;
68633;SDS011;55625;47.072;22.192;2022-10-15T05:27:30;5.75;;;3.28;;
68633;SDS011;55625;47.072;22.192;2022-10-15T05:29:56;10.27;;;3.77;;
68633;SDS011;55625;47.072;22.192;2022-10-15T05:32:22;15.23;;;5.35;;
68633;SDS011;55625;47.072;22.192;2022-10-15T05:34:48;10.00;;;3.88;;
68633;SDS011;55625;47.072;22.192;2022-10-15T05:37:14;9.30;;;3.37;;
68633;SDS011;55625;47.072;22.192;2022-10-15T05:39:40;8.50;;;4.03;;
68633;SDS011;55625;47.072;22.192;2022-10-15T05:42:05;8.48;;;4.00;;
68633;SDS011;55625;47.072;22.192;2022-10-15T05:44:34;19.20;;;3.90;;
68633;SDS011;55625;47.072;22.192;2022-10-15T05:46:59;8.52;;;3.35;;
68633;SDS011;55625;47.072;22.192;2022-10-15T05:49:25;11.00;;;4.30;;
68633;SDS011;55625;47.072;22.192;2022-10-15T05:51:51;12.77;;;2.80;;
68633;SDS011;55625;47.072;22.192;2022-10-15T05:54:17;7.68;;;5.13;;
68633;SDS011;55625;47.072;22.192;2022-10-15T05:56:43;6.85;;;3.42;;
68633;SDS011;55625;47.072;22.192;2022-10-15T05:59:09;11.60;;;4.57;;
68633;SDS011;55625;47.072;22.192;2022-10-15T06:01:35;15.07;;;4.82;;
68633;SDS011;55625;47.072;22.192;2022-10-15T06:04:01;9.18;;;3.70;;
68633;SDS011;55625;47.072;22.192;2022-10-15T06:06:27;7.50;;;4.65;;
68633;SDS011;55625;47.072;22.192;2022-10-15T06:08:53;10.60;;;4.73;;
68633;SDS011;55625;47.072;22.192;2022-10-15T06:11:19;9.48;;;3.38;;
68633;SDS011;55625;47.072;22.192;2022-10-15T06:13:46;8.45;;;3.88;;
68633;SDS011;55625;47.072;22.192;2022-10-15T06:16:13;13.18;;;3.90;;
68633;SDS011;55625;47.072;22.192;2022-10-15T06:18:41;47.85;;;14.30;;
68633;SDS011;55625;47.072;22.192;2022-10-15T06:21:07;54.00;;;18.47;;
68633;SDS011;55625;47.072;22.192;2022-10-15T06:23:35;19.00;;;5.65;;
68633;SDS011;55625;47.072;22.192;2022-10-15T06:26:04;8.25;;;4.45;;
68633;SDS011;55625;47.072;22.192;2022-10-15T06:28:33;12.93;;;3.57;;
68633;SDS011;55625;47.072;22.192;2022-10-15T06:31:00;12.93;;;3.60;;
68633;SDS011;55625;47.072;22.192;2022-10-15T06:33:26;10.88;;;4.43;;
68633;SDS011;55625;47.072;22.192;2022-10-15T06:35:53;13.75;;;3.85;;
68633;SDS011;55625;47.072;22.192;2022-10-15T06:38:19;9.88;;;3.83;;
68633;SDS011;55625;47.072;22.192;2022-10-15T06:40:45;6.67;;;2.77;;
68633;SDS011;55625;47.072;22.192;2022-10-15T06:43:10;17.42;;;4.20;;
68633;SDS011;55625;47.072;22.192;2022-10-15T06:45:37;11.57;;;4.22;;
68633;SDS011;55625;47.072;22.192;2022-10-15T06:48:06;11.47;;;4.97;;
68633;SDS011;55625;47.072;22.192;2022-10-15T06:50:34;15.40;;;5.88;;
68633;SDS011;55625;47.072;22.192;2022-10-15T06:53:01;19.30;;;6.47;;
68633;SDS011;55625;47.072;22.192;2022-10-15T06:55:28;12.18;;;6.75;;
68633;SDS011;55625;47.072;22.192;2022-10-15T06:57:54;13.52;;;4.78;;
68633;SDS011;55625;47.072;22.192;2022-10-15T07:00:21;29.17;;;8.37;;
68633;SDS011;55625;47.072;22.192;2022-10-15T07:02:48;16.45;;;7.55;;
68633;SDS011;55625;47.072;22.192;2022-10-15T07:05:16;10.90;;;3.92;;
68633;SDS011;55625;47.072;22.192;2022-10-15T07:07:49;10.55;;;4.20;;
68633;SDS011;55625;47.072;22.192;2022-10-15T07:10:19;11.55;;;3.97;;
68633;SDS011;55625;47.072;22.192;2022-10-15T07:12:46;11.63;;;5.20;;
68633;SDS011;55625;47.072;22.192;2022-10-15T07:15:12;8.32;;;3.63;;
68633;SDS011;55625;47.072;22.192;2022-10-15T07:17:38;13.75;;;5.03;;
68633;SDS011;55625;47.072;22.192;2022-10-15T07:20:09;9.52;;;3.58;;
68633;SDS011;55625;47.072;22.192;2022-10-15T07:22:35;8.67;;;4.00;;
68633;SDS011;55625;47.072;22.192;2022-10-15T07:25:01;11.65;;;4.20;;
68633;SDS011;55625;47.072;22.192;2022-10-15T07:27:27;8.25;;;3.50;;
68633;SDS011;55625;47.072;22.192;2022-10-15T07:29:53;7.57;;;3.10;;
68633;SDS011;55625;47.072;22.192;2022-10-15T07:32:19;13.03;;;4.73;;
68633;SDS011;55625;47.072;22.192;2022-10-15T07:34:44;16.38;;;7.57;;
68633;SDS011;55625;47.072;22.192;2022-10-15T07:37:10;15.07;;;5.63;;
68633;SDS011;55625;47.072;22.192;2022-10-15T07:39:36;10.52;;;4.40;;
68633;SDS011;55625;47.072;22.192;2022-10-15T07:42:02;10.25;;;4.03;;
68633;SDS011;55625;47.072;22.192;2022-10-15T07:44:28;10.77;;;4.67;;
68633;SDS011;55625;47.072;22.192;2022-10-15T07:46:53;10.80;;;3.90;;
68633;SDS011;55625;47.072;22.192;2022-10-15T07:49:19;10.93;;;4.60;;
68633;SDS011;55625;47.072;22.192;2022-10-15T07:51:45;10.27;;;4.57;;
68633;SDS011;55625;47.072;22.192;2022-10-15T07:54:11;10.82;;;4.10;;
68633;SDS011;55625;47.072;22.192;2022-10-15T07:56:37;15.17;;;4.03;;
68633;SDS011;55625;47.072;22.192;2022-10-15T07:59:02;11.32;;;4.20;;
68633;SDS011;55625;47.072;22.192;2022-10-15T08:01:28;12.60;;;4.80;;
68633;SDS011;55625;47.072;22.192;2022-10-15T08:03:54;16.73;;;4.77;;
68633;SDS011;55625;47.072;22.192;2022-10-15T08:06:20;9.15;;;3.00;;
68633;SDS011;55625;47.072;22.192;2022-10-15T08:08:46;10.05;;;3.88;;
68633;SDS011;55625;47.072;22.192;2022-10-15T08:11:12;7.77;;;2.80;;
68633;SDS011;55625;47.072;22.192;2022-10-15T08:13:40;10.50;;;4.40;;
68633;SDS011;55625;47.072;22.192;2022-10-15T08:16:08;8.07;;;2.95;;
68633;SDS011;55625;47.072;22.192;2022-10-15T08:18:36;11.02;;;3.97;;
68633;SDS011;55625;47.072;22.192;2022-10-15T08:21:03;8.70;;;4.28;;
68633;SDS011;55625;47.072;22.192;2022-10-15T08:23:30;12.40;;;4.60;;
68633;SDS011;55625;47.072;22.192;2022-10-15T08:25:57;9.07;;;2.77;;
68633;SDS011;55625;47.072;22.192;2022-10-15T08:28:25;9.65;;;3.90;;
68633;SDS011;55625;47.072;22.192;2022-10-15T08:30:52;10.13;;;4.47;;
68633;SDS011;55625;47.072;22.192;2022-10-15T08:33:18;17.00;;;9.98;;
68633;SDS011;55625;47.072;22.192;2022-10-15T08:35:44;13.97;;;6.63;;
68633;SDS011;55625;47.072;22.192;2022-10-15T08:38:10;12.13;;;4.95;;
68633;SDS011;55625;47.072;22.192;2022-10-15T08:40:36;10.02;;;4.00;;
68633;SDS011;55625;47.072;22.192;2022-10-15T08:43:04;10.40;;;3.97;;
68633;SDS011;55625;47.072;22.192;2022-10-15T08:45:33;8.47;;;3.03;;
68633;SDS011;55625;47.072;22.192;2022-10-15T08:48:10;10.63;;;3.97;;
68633;SDS011;55625;47.072;22.192;2022-10-15T08:50:41;13.60;;;4.22;;
68633;SDS011;55625;47.072;22.192;2022-10-15T08:53:22;8.20;;;3.63;;
68633;SDS011;55625;47.072;22.192;2022-10-15T08:55:50;12.13;;;4.43;;
68633;SDS011;55625;47.072;22.192;2022-10-15T09:00:59;14.63;;;4.55;;
68633;SDS011;55625;47.072;22.192;2022-10-15T09:03:50;10.82;;;3.22;;
68633;SDS011;55625;47.072;22.192;2022-10-15T09:06:33;8.15;;;3.03;;
68633;SDS011;55625;47.072;22.192;2022-10-15T09:14:43;8.73;;;4.43;;
68633;SDS011;55625;47.072;22.192;2022-10-15T09:17:21;11.20;;;4.18;;
68633;SDS011;55625;47.072;22.192;2022-10-15T09:19:50;7.45;;;3.53;;
68633;SDS011;55625;47.072;22.192;2022-10-15T09:22:24;9.38;;;2.80;;
68633;SDS011;55625;47.072;22.192;2022-10-15T09:24:55;11.27;;;3.57;;
68633;SDS011;55625;47.072;22.192;2022-10-15T09:27:34;11.93;;;4.32;;
68633;SDS011;55625;47.072;22.192;2022-10-15T09:33:14;7.70;;;2.30;;
68633;SDS011;55625;47.072;22.192;2022-10-15T09:38:44;8.30;;;3.27;;
68633;SDS011;55625;47.072;22.192;2022-10-15T09:44:58;7.07;;;4.15;;
68633;SDS011;55625;47.072;22.192;2022-10-15T09:47:34;11.90;;;4.07;;
68633;SDS011;55625;47.072;22.192;2022-10-15T09:50:01;13.52;;;5.05;;
68633;SDS011;55625;47.072;22.192;2022-10-15T10:01:02;8.57;;;4.30;;
68633;SDS011;55625;47.072;22.192;2022-10-15T10:03:32;8.02;;;2.65;;
68633;SDS011;55625;47.072;22.192;2022-10-15T10:06:05;7.50;;;3.90;;
68633;SDS011;55625;47.072;22.192;2022-10-15T10:08:46;8.30;;;3.42;;
68633;SDS011;55625;47.072;22.192;2022-10-15T10:11:22;10.13;;;3.15;;
68633;SDS011;55625;47.072;22.192;2022-10-15T10:13:59;11.50;;;3.65;;
68633;SDS011;55625;47.072;22.192;2022-10-15T10:16:28;8.50;;;3.58;;
68633;SDS011;55625;47.072;22.192;2022-10-15T10:19:03;9.97;;;2.97;;
68633;SDS011;55625;47.072;22.192;2022-10-15T10:21:37;8.88;;;4.07;;
68633;SDS011;55625;47.072;22.192;2022-10-15T10:24:26;8.07;;;3.97;;
68633;SDS011;55625;47.072;22.192;2022-10-15T10:26:59;7.13;;;3.47;;
68633;SDS011;55625;47.072;22.192;2022-10-15T10:29:26;6.22;;;3.53;;
68633;SDS011;55625;47.072;22.192;2022-10-15T10:31:58;9.10;;;3.23;;
68633;SDS011;55625;47.072;22.192;2022-10-15T10:34:27;6.68;;;2.75;;
68633;SDS011;55625;47.072;22.192;2022-10-15T10:36:56;8.45;;;3.92;;
68633;SDS011;55625;47.072;22.192;2022-10-15T10:39:27;10.10;;;3.53;;
68633;SDS011;55625;47.072;22.192;2022-10-15T10:44:38;9.90;;;4.90;;
68633;SDS011;55625;47.072;22.192;2022-10-15T10:47:14;7.95;;;4.32;;
68633;SDS011;55625;47.072;22.192;2022-10-15T10:52:32;8.68;;;4.57;;
68633;SDS011;55625;47.072;22.192;2022-10-15T10:57:52;7.97;;;3.17;;
68633;SDS011;55625;47.072;22.192;2022-10-15T11:00:30;30.58;;;8.80;;
68633;SDS011;55625;47.072;22.192;2022-10-15T11:03:14;24.95;;;6.00;;
68633;SDS011;55625;47.072;22.192;2022-10-15T11:05:58;10.48;;;3.97;;
68633;SDS011;55625;47.072;22.192;2022-10-15T11:08:37;8.57;;;3.60;;
68633;SDS011;55625;47.072;22.192;2022-10-15T11:15:16;33.97;;;11.57;;
68633;SDS011;55625;47.072;22.192;2022-10-15T11:24:10;9.30;;;3.60;;
68633;SDS011;55625;47.072;22.192;2022-10-15T11:32:33;8.57;;;4.07;;
68633;SDS011;55625;47.072;22.192;2022-10-15T11:38:07;13.30;;;4.63;;
68633;SDS011;55625;47.072;22.192;2022-10-15T11:41:30;7.80;;;3.10;;
68633;SDS011;55625;47.072;22.192;2022-10-15T11:55:03;6.57;;;3.35;;
68633;SDS011;55625;47.072;22.192;2022-10-15T11:57:48;19.17;;;7.38;;
68633;SDS011;55625;47.072;22.192;2022-10-15T12:00:22;8.70;;;4.18;;
68633;SDS011;55625;47.072;22.192;2022-10-15T12:03:04;6.60;;;2.65;;
68633;SDS011;55625;47.072;22.192;2022-10-15T12:05:50;8.00;;;3.63;;
68633;SDS011;55625;47.072;22.192;2022-10-15T12:08:33;10.38;;;3.70;;
68633;SDS011;55625;47.072;22.192;2022-10-15T12:11:19;8.68;;;3.95;;
68633;SDS011;55625;47.072;22.192;2022-10-15T12:14:06;7.60;;;3.47;;
68633;SDS011;55625;47.072;22.192;2022-10-15T12:22:38;8.75;;;4.10;;
68633;SDS011;55625;47.072;22.192;2022-10-15T12:30:32;6.50;;;2.08;;
68633;SDS011;55625;47.072;22.192;2022-10-15T12:33:02;7.03;;;3.47;;
68633;SDS011;55625;47.072;22.192;2022-10-15T12:36:00;8.32;;;2.30;;
68633;SDS011;55625;47.072;22.192;2022-10-15T12:39:20;8.23;;;2.53;;
68633;SDS011;55625;47.072;22.192;2022-10-15T12:41:48;9.30;;;4.25;;
68633;SDS011;55625;47.072;22.192;2022-10-15T12:44:25;6.65;;;2.63;;
68633;SDS011;55625;47.072;22.192;2022-10-15T12:46:56;11.33;;;3.63;;
68633;SDS011;55625;47.072;22.192;2022-10-15T12:51:56;6.45;;;3.30;;
68633;SDS011;55625;47.072;22.192;2022-10-15T12:54:40;8.45;;;3.00;;
68633;SDS011;55625;47.072;22.192;2022-10-15T12:57:55;8.73;;;3.05;;
68633;SDS011;55625;47.072;22.192;2022-10-15T12:59:58;6.63;;;2.20;;
68633;SDS011;55625;47.072;22.192;2022-10-15T13:08:14;8.23;;;3.30;;
68633;SDS011;55625;47.072;22.192;2022-10-15T13:10:57;7.55;;;3.40;;
68633;SDS011;55625;47.072;22.192;2022-10-15T13:13:28;6.33;;;2.83;;
68633;SDS011;55625;47.072;22.192;2022-10-15T13:16:01;9.80;;;3.22;;
68633;SDS011;55625;47.072;22.192;2022-10-15T13:18:33;5.97;;;3.03;;
68633;SDS011;55625;47.072;22.192;2022-10-15T13:21:00;7.47;;;3.92;;
68633;SDS011;55625;47.072;22.192;2022-10-15T13:23:30;7.55;;;2.95;;
68633;SDS011;55625;47.072;22.192;2022-10-15T13:28:49;6.70;;;3.25;;
68633;SDS011;55625;47.072;22.192;2022-10-15T13:34:07;6.05;;;2.45;;
68633;SDS011;55625;47.072;22.192;2022-10-15T13:36:53;8.85;;;3.42;;
68633;SDS011;55625;47.072;22.192;2022-10-15T13:42:04;10.95;;;4.43;;
68633;SDS011;55625;47.072;22.192;2022-10-15T13:44:40;10.07;;;3.78;;
68633;SDS011;55625;47.072;22.192;2022-10-15T13:55:26;8.88;;;3.10;;
68633;SDS011;55625;47.072;22.192;2022-10-15T14:00:56;15.75;;;3.83;;
68633;SDS011;55625;47.072;22.192;2022-10-15T14:03:50;7.03;;;2.58;;
68633;SDS011;55625;47.072;22.192;2022-10-15T14:08:43;8.82;;;4.65;;
68633;SDS011;55625;47.072;22.192;2022-10-15T14:11:11;10.63;;;4.00;;
68633;SDS011;55625;47.072;22.192;2022-10-15T14:13:44;12.82;;;5.32;;
68633;SDS011;55625;47.072;22.192;2022-10-15T14:16:29;8.93;;;4.07;;
68633;SDS011;55625;47.072;22.192;2022-10-15T14:19:14;12.98;;;4.82;;
68633;SDS011;55625;47.072;22.192;2022-10-15T14:21:46;14.98;;;4.18;;
68633;SDS011;55625;47.072;22.192;2022-10-15T14:24:17;13.05;;;5.53;;
68633;SDS011;55625;47.072;22.192;2022-10-15T14:27:19;12.25;;;5.45;;
68633;SDS011;55625;47.072;22.192;2022-10-15T14:29:54;20.17;;;5.83;;
68633;SDS011;55625;47.072;22.192;2022-10-15T14:34:56;26.00;;;10.95;;
68633;SDS011;55625;47.072;22.192;2022-10-15T14:45:11;34.05;;;17.27;;
68633;SDS011;55625;47.072;22.192;2022-10-15T14:47:42;37.25;;;21.25;;
68633;SDS011;55625;47.072;22.192;2022-10-15T14:50:12;53.95;;;23.65;;
68633;SDS011;55625;47.072;22.192;2022-10-15T14:52:42;46.63;;;22.80;;
68633;SDS011;55625;47.072;22.192;2022-10-15T14:55:29;33.57;;;15.30;;
68633;SDS011;55625;47.072;22.192;2022-10-15T14:58:06;35.30;;;13.63;;
68633;SDS011;55625;47.072;22.192;2022-10-15T15:00:44;23.85;;;11.55;;
68633;SDS011;55625;47.072;22.192;2022-10-15T15:03:17;25.95;;;10.70;;
68633;SDS011;55625;47.072;22.192;2022-10-15T15:05:50;26.63;;;9.88;;
68633;SDS011;55625;47.072;22.192;2022-10-15T15:08:21;19.17;;;8.20;;
68633;SDS011;55625;47.072;22.192;2022-10-15T15:10:48;20.73;;;8.77;;
68633;SDS011;55625;47.072;22.192;2022-10-15T15:13:18;22.10;;;8.50;;
68633;SDS011;55625;47.072;22.192;2022-10-15T15:15:50;24.42;;;9.50;;
68633;SDS011;55625;47.072;22.192;2022-10-15T15:18:16;24.42;;;10.48;;
68633;SDS011;55625;47.072;22.192;2022-10-15T15:20:43;34.90;;;14.27;;
68633;SDS011;55625;47.072;22.192;2022-10-15T15:23:20;46.85;;;18.23;;
68633;SDS011;55625;47.072;22.192;2022-10-15T15:25:49;41.72;;;16.10;;
68633;SDS011;55625;47.072;22.192;2022-10-15T15:28:17;40.97;;;18.33;;
68633;SDS011;55625;47.072;22.192;2022-10-15T15:30:55;46.70;;;18.33;;
68633;SDS011;55625;47.072;22.192;2022-10-15T15:33:29;43.73;;;17.33;;
68633;SDS011;55625;47.072;22.192;2022-10-15T15:36:03;40.70;;;17.05;;
68633;SDS011;55625;47.072;22.192;2022-10-15T15:38:36;44.47;;;18.27;;
68633;SDS011;55625;47.072;22.192;2022-10-15T15:41:11;45.25;;;16.27;;
68633;SDS011;55625;47.072;22.192;2022-10-15T15:43:43;38.67;;;15.37;;
68633;SDS011;55625;47.072;22.192;2022-10-15T15:46:10;36.80;;;13.85;;
68633;SDS011;55625;47.072;22.192;2022-10-15T15:48:36;38.15;;;15.60;;
68633;SDS011;55625;47.072;22.192;2022-10-15T15:51:03;39.92;;;13.75;;
68633;SDS011;55625;47.072;22.192;2022-10-15T15:53:40;34.33;;;14.02;;
68633;SDS011;55625;47.072;22.192;2022-10-15T15:56:06;36.73;;;15.73;;
68633;SDS011;55625;47.072;22.192;2022-10-15T15:58:31;35.90;;;14.75;;
68633;SDS011;55625;47.072;22.192;2022-10-15T16:00:57;26.97;;;12.83;;
68633;SDS011;55625;47.072;22.192;2022-10-15T16:03:23;31.27;;;13.20;;
68633;SDS011;55625;47.072;22.192;2022-10-15T16:05:49;32.00;;;13.65;;
68633;SDS011;55625;47.072;22.192;2022-10-15T16:08:16;30.00;;;11.52;;
68633;SDS011;55625;47.072;22.192;2022-10-15T16:10:42;23.77;;;10.33;;
68633;SDS011;55625;47.072;22.192;2022-10-15T16:13:09;27.75;;;10.45;;
68633;SDS011;55625;47.072;22.192;2022-10-15T16:15:34;22.15;;;9.15;;
68633;SDS011;55625;47.072;22.192;2022-10-15T16:18:00;22.83;;;10.20;;
68633;SDS011;55625;47.072;22.192;2022-10-15T16:20:26;31.00;;;11.90;;
68633;SDS011;55625;47.072;22.192;2022-10-15T16:22:52;31.67;;;11.00;;
68633;SDS011;55625;47.072;22.192;2022-10-15T16:25:19;37.17;;;12.68;;
68633;SDS011;55625;47.072;22.192;2022-10-15T16:27:45;24.77;;;11.27;;
68633;SDS011;55625;47.072;22.192;2022-10-15T16:30:16;26.45;;;12.95;;
68633;SDS011;55625;47.072;22.192;2022-10-15T16:32:43;26.17;;;12.70;;
68633;SDS011;55625;47.072;22.192;2022-10-15T16:35:09;29.02;;;12.48;;
68633;SDS011;55625;47.072;22.192;2022-10-15T16:37:35;25.30;;;11.10;;
68633;SDS011;55625;47.072;22.192;2022-10-15T16:40:01;67.17;;;23.53;;
68633;SDS011;55625;47.072;22.192;2022-10-15T16:42:27;72.15;;;27.27;;
68633;SDS011;55625;47.072;22.192;2022-10-15T16:44:53;69.00;;;23.07;;
68633;SDS011;55625;47.072;22.192;2022-10-15T16:47:19;94.97;;;32.33;;
68633;SDS011;55625;47.072;22.192;2022-10-15T16:49:45;77.35;;;31.85;;
68633;SDS011;55625;47.072;22.192;2022-10-15T16:52:11;66.30;;;26.70;;
68633;SDS011;55625;47.072;22.192;2022-10-15T16:54:37;59.47;;;26.33;;
68633;SDS011;55625;47.072;22.192;2022-10-15T16:57:03;58.80;;;23.40;;
68633;SDS011;55625;47.072;22.192;2022-10-15T16:59:29;46.53;;;21.10;;
68633;SDS011;55625;47.072;22.192;2022-10-15T17:01:55;52.70;;;19.35;;
68633;SDS011;55625;47.072;22.192;2022-10-15T17:04:22;38.60;;;16.10;;